createdAt,value
2019-01-14T00:02:18.109Z,97737.05
2019-01-14T00:04:55.386Z,97732.90
2019-01-14T00:07:21.782Z,97731.80
2019-01-14T00:09:52.743Z,97733.92
2019-01-14T00:12:23.753Z,97743.64
2019-01-14T00:14:54.685Z,97742.17
2019-01-14T00:17:25.601Z,97758.80
2019-01-14T00:19:56.610Z,97746.39
2019-01-14T00:22:27.584Z,97750.86
2019-01-14T00:24:58.597Z,97749.65
2019-01-14T00:27:29.526Z,97755.02
2019-01-14T00:30:00.438Z,97757.45
2019-01-14T00:32:31.406Z,97760.58
2019-01-14T00:35:02.313Z,97754.70
2019-01-14T00:37:33.229Z,97777.97
2019-01-14T00:40:04.422Z,97775.80
2019-01-14T00:42:35.710Z,97778.80
2019-01-14T00:45:06.852Z,97788.08
2019-01-14T00:47:37.815Z,97788.08
2019-01-14T00:50:09.754Z,97783.59
2019-01-14T00:52:40.702Z,97793.63
2019-01-14T00:55:11.610Z,97797.02
2019-01-14T00:57:42.518Z,97795.36
2019-01-14T01:00:19.270Z,97798.05
2019-01-14T01:02:50.295Z,97811.53
2019-01-14T01:05:21.280Z,97794.97
2019-01-14T01:07:52.334Z,97812.67
2019-01-14T01:10:23.350Z,97811.13
2019-01-14T01:12:54.348Z,97832.59
2019-01-14T01:15:25.245Z,97825.17
2019-01-14T01:17:56.232Z,97829.19
2019-01-14T01:20:28.579Z,97831.74
2019-01-14T01:22:59.572Z,97830.08
2019-01-14T01:25:30.493Z,97830.52
2019-01-14T01:28:01.482Z,97832.04
2019-01-14T01:30:32.416Z,97828.02
2019-01-14T01:33:03.341Z,97839.45
2019-01-14T01:35:34.372Z,97851.33
2019-01-14T01:38:05.326Z,97863.27
2019-01-14T01:40:36.249Z,97851.19
2019-01-14T01:43:07.322Z,97844.44
2019-01-14T01:45:38.229Z,97861.14
2019-01-14T01:48:09.219Z,97845.19
2019-01-14T01:50:40.061Z,97852.99
2019-01-14T01:53:11.013Z,97865.95
2019-01-14T01:55:41.958Z,97854.34
2019-01-14T01:58:12.905Z,97857.94
2019-01-14T02:00:43.828Z,97866.95
2019-01-14T02:03:14.773Z,97866.69
2019-01-14T02:05:45.751Z,97880.61
2019-01-14T02:08:16.683Z,97874.36
2019-01-14T02:10:47.577Z,97882.03
2019-01-14T02:13:18.574Z,97898.14
2019-01-14T02:15:49.542Z,97895.78
2019-01-14T02:18:20.502Z,97899.48
2019-01-14T02:20:51.536Z,97910.36
2019-01-14T02:23:22.559Z,97912.58
2019-01-14T02:25:53.457Z,97912.53
2019-01-14T02:28:24.416Z,97913.73
2019-01-14T02:30:55.386Z,97916.79
2019-01-14T02:33:26.373Z,97930.39
2019-01-14T02:35:57.656Z,97934.47
2019-01-14T02:38:28.641Z,97936.50
2019-01-14T02:40:59.570Z,97931.46
2019-01-14T02:43:30.472Z,97934.38
2019-01-14T02:46:01.367Z,97944.13
2019-01-14T02:48:32.264Z,97955.77
2019-01-14T02:51:04.243Z,97949.11
2019-01-14T02:53:35.219Z,97957.56
2019-01-14T02:56:06.118Z,97950.62
2019-01-14T02:58:37.099Z,97967.44
2019-01-14T03:01:08.086Z,97961.14
2019-01-14T03:03:39.055Z,97967.37
2019-01-14T03:06:09.975Z,97985.16
2019-01-14T03:08:40.985Z,97982.55
2019-01-14T03:11:11.898Z,97985.47
2019-01-14T03:13:42.849Z,97989.85
2019-01-14T03:16:13.804Z,98000.78
2019-01-14T03:18:44.710Z,98010.72
2019-01-14T03:21:15.617Z,98003.75
2019-01-14T03:23:46.533Z,98012.66
2019-01-14T03:26:17.425Z,98020.36
2019-01-14T03:28:48.339Z,98028.57
2019-01-14T03:31:19.321Z,98024.38
2019-01-14T03:33:50.226Z,98042.98
2019-01-14T03:36:21.137Z,98047.66
2019-01-14T03:38:52.033Z,98038.94
2019-01-14T03:41:22.959Z,98053.52
2019-01-14T03:43:53.861Z,98048.81
2019-01-14T03:46:24.773Z,98041.13
2019-01-14T03:48:56.875Z,98050.36
2019-01-14T03:51:27.777Z,98052.51
2019-01-14T03:53:58.687Z,98059.71
2019-01-14T03:56:29.598Z,98063.40
2019-01-14T03:59:00.493Z,98069.09
2019-01-14T04:01:31.411Z,98081.83
2019-01-14T04:04:02.393Z,98076.98
2019-01-14T04:06:33.398Z,98082.92
2019-01-14T04:09:06.230Z,98091.80
2019-01-14T04:11:37.327Z,98093.30
2019-01-14T04:14:08.232Z,98097.98
2019-01-14T04:16:39.150Z,98105.69
2019-01-14T04:19:10.053Z,98111.55
2019-01-14T04:21:40.980Z,98129.81
2019-01-14T04:24:11.881Z,98117.09
2019-01-14T04:26:42.801Z,98137.17
2019-01-14T04:29:13.713Z,98139.84
2019-01-14T04:31:44.632Z,98134.14
2019-01-14T04:34:15.564Z,98143.14
2019-01-14T04:36:46.474Z,98152.67
2019-01-14T04:39:17.484Z,98150.50
2019-01-14T04:41:48.421Z,98172.92
2019-01-14T04:44:19.326Z,98179.30
2019-01-14T04:46:50.238Z,98199.39
2019-01-14T04:49:21.139Z,98209.75
2019-01-14T04:51:52.044Z,98220.14
2019-01-14T04:54:22.941Z,98244.92
2019-01-14T04:56:53.862Z,98230.19
2019-01-14T04:59:24.755Z,98240.08
2019-01-14T05:01:55.677Z,98246.81
2019-01-14T05:04:26.586Z,98261.73
2019-01-14T05:06:57.559Z,98274.62
2019-01-14T05:09:28.513Z,98273.12
2019-01-14T05:11:59.411Z,98285.50
2019-01-14T05:14:30.323Z,98299.06
2019-01-14T05:17:02.731Z,98305.59
2019-01-14T05:19:33.784Z,98315.79
2019-01-14T05:22:04.735Z,98326.32
2019-01-14T05:24:35.704Z,98321.47
2019-01-14T05:27:06.675Z,98331.00
2019-01-14T05:29:37.652Z,98345.55
2019-01-14T05:32:09.018Z,98355.08
2019-01-14T05:34:39.965Z,98355.08
2019-01-14T05:37:10.923Z,98368.12
2019-01-14T05:39:41.920Z,98362.25
2019-01-14T05:42:13.176Z,98365.75
2019-01-14T05:44:44.115Z,98376.80
2019-01-14T05:47:15.054Z,98375.78
2019-01-14T05:49:45.971Z,98379.78
2019-01-14T05:52:16.860Z,98394.67
2019-01-14T05:54:47.861Z,98389.49
2019-01-14T05:57:18.811Z,98396.18
2019-01-14T05:59:50.257Z,98399.18
2019-01-14T06:02:21.177Z,98394.98
2019-01-14T06:04:53.186Z,98416.54
2019-01-14T06:07:24.123Z,98409.48
2019-01-14T06:09:55.057Z,98428.38
2019-01-14T06:12:26.009Z,98423.19
2019-01-14T06:14:56.943Z,98423.17
2019-01-14T06:17:27.837Z,98429.20
2019-01-14T06:19:59.034Z,98437.55
2019-01-14T06:22:29.962Z,98442.89
2019-01-14T06:25:00.937Z,98450.41
2019-01-14T06:27:31.882Z,98451.42
2019-01-14T06:30:02.780Z,98457.81
2019-01-14T06:32:33.715Z,98470.03
2019-01-14T06:35:04.920Z,98474.54
2019-01-14T06:37:35.873Z,98469.37
2019-01-14T06:40:08.104Z,98482.06
2019-01-14T06:42:39.101Z,98484.92
2019-01-14T06:45:11.571Z,98488.62
2019-01-14T06:47:42.465Z,98496.46
2019-01-14T06:50:14.644Z,98504.69
2019-01-14T06:52:45.587Z,98519.22
2019-01-14T06:55:16.673Z,98578.74
2019-01-14T06:57:47.575Z,98569.34
2019-01-14T07:00:24.533Z,98564.50
2019-01-14T07:02:55.451Z,98571.30
2019-01-14T07:05:26.442Z,98554.63
2019-01-14T07:07:59.778Z,98558.44
2019-01-14T07:10:31.204Z,98556.92
2019-01-14T07:13:02.098Z,98555.95
2019-01-14T07:15:33.031Z,98567.26
2019-01-14T07:18:03.940Z,98574.60
2019-01-14T07:20:34.854Z,98576.06
2019-01-14T07:23:05.785Z,98581.68
2019-01-14T07:25:36.695Z,98572.41
2019-01-14T07:28:07.666Z,98577.39
2019-01-14T07:30:38.590Z,98581.05
2019-01-14T07:33:09.582Z,98579.16
2019-01-14T07:35:40.536Z,98587.36
2019-01-14T07:38:11.720Z,98606.09
2019-01-14T07:40:42.639Z,98601.10
2019-01-14T07:43:13.690Z,98607.08
2019-01-14T07:45:44.764Z,98605.02
2019-01-14T07:48:15.922Z,98615.66
2019-01-14T07:50:46.857Z,98614.36
2019-01-14T07:53:18.855Z,98616.58
2019-01-14T07:55:49.771Z,98616.98
2019-01-14T07:58:20.969Z,98621.39
2019-01-14T08:00:51.913Z,98638.91
2019-01-14T08:03:23.483Z,98647.23
2019-01-14T08:05:54.453Z,98658.16
2019-01-14T08:08:25.403Z,98660.14
2019-01-14T08:10:56.326Z,98670.83
2019-01-14T08:13:27.280Z,98689.46
2019-01-14T08:15:58.209Z,98701.72
2019-01-14T08:18:29.176Z,98694.50
2019-01-14T08:21:00.101Z,98708.92
2019-01-14T08:23:31.115Z,98716.09
2019-01-14T08:26:02.126Z,98708.38
2019-01-14T08:28:33.038Z,98708.80
2019-01-14T08:31:03.983Z,98716.42
2019-01-14T08:33:34.955Z,98714.05
2019-01-14T08:36:06.493Z,98727.52
2019-01-14T08:38:37.520Z,98718.53
2019-01-14T08:41:09.278Z,98738.73
2019-01-14T08:43:40.592Z,98730.04
2019-01-14T08:46:11.832Z,98730.73
2019-01-14T08:48:48.759Z,98741.48
2019-01-14T08:51:15.556Z,98745.27
2019-01-14T08:53:46.658Z,98760.50
2019-01-14T08:56:17.633Z,98751.72
2019-01-14T08:58:48.535Z,98752.42
2019-01-14T09:01:19.540Z,98751.52
2019-01-14T09:03:50.905Z,98762.67
2019-01-14T09:06:22.921Z,98765.69
2019-01-14T09:08:53.879Z,98775.45
2019-01-14T09:11:24.818Z,98784.86
2019-01-14T09:13:56.901Z,98779.94
2019-01-14T09:16:27.881Z,98781.84
2019-01-14T09:18:58.960Z,98798.12
2019-01-14T09:21:30.342Z,98809.19
2019-01-14T09:24:02.434Z,98805.36
2019-01-14T09:26:33.478Z,98808.19
2019-01-14T09:29:04.468Z,98807.64
2019-01-14T09:31:35.492Z,98810.98
2019-01-14T09:34:06.917Z,98803.52
2019-01-14T09:36:38.014Z,98804.85
2019-01-14T09:39:10.370Z,98819.94
2019-01-14T09:41:41.412Z,98826.77
2019-01-14T09:44:12.498Z,98820.84
2019-01-14T09:46:43.520Z,98820.49
2019-01-14T09:49:14.529Z,98821.36
2019-01-14T09:51:45.472Z,98817.13
2019-01-14T09:54:16.447Z,98822.38
2019-01-14T09:56:47.749Z,98819.42
2019-01-14T09:59:18.677Z,98810.21
2019-01-14T10:01:49.670Z,98807.96
2019-01-14T10:04:21.122Z,98811.20
2019-01-14T10:06:52.071Z,98823.75
2019-01-14T10:09:23.011Z,98819.78
2019-01-14T10:11:53.926Z,98832.31
2019-01-14T10:14:24.925Z,98827.76
2019-01-14T10:16:56.520Z,98819.77
2019-01-14T10:19:27.561Z,98843.66
2019-01-14T10:21:58.490Z,98832.26
2019-01-14T10:24:29.406Z,98846.24
2019-01-14T10:28:53.537Z,98847.86
2019-01-14T10:31:24.668Z,98852.20
2019-01-14T10:33:55.967Z,98834.34
2019-01-14T10:36:27.053Z,98842.45
2019-01-14T10:38:57.993Z,98827.12
2019-01-14T10:41:29.013Z,98827.58
2019-01-14T10:43:59.977Z,98839.69
2019-01-14T10:46:31.103Z,98823.89
2019-01-14T10:49:06.666Z,98820.23
2019-01-14T10:51:35.009Z,98827.39
2019-01-14T10:54:05.996Z,98832.17
2019-01-14T10:56:37.323Z,98826.11
2019-01-14T10:59:08.372Z,98848.44
2019-01-14T11:01:39.337Z,98834.70
2019-01-14T11:04:10.340Z,98852.04
2019-01-14T11:06:41.338Z,98836.28
2019-01-14T11:09:12.346Z,98854.00
2019-01-14T11:11:43.381Z,98846.58
2019-01-14T11:14:14.583Z,98846.52
2019-01-14T11:16:46.409Z,98869.09
2019-01-14T11:19:17.384Z,98865.20
2019-01-14T11:21:48.566Z,98862.89
2019-01-14T11:24:19.879Z,98863.95
2019-01-14T11:26:50.793Z,98864.69
2019-01-14T11:29:21.830Z,98877.29
2019-01-14T11:31:52.757Z,98871.57
2019-01-14T11:34:23.695Z,98887.09
2019-01-14T11:36:54.696Z,98892.64
2019-01-14T11:39:25.634Z,98880.14
2019-01-14T11:41:59.688Z,98897.71
2019-01-14T11:44:31.183Z,98884.52
2019-01-14T11:47:02.356Z,98906.69
2019-01-14T11:49:33.334Z,98907.50
2019-01-14T11:52:06.834Z,98903.73
2019-01-14T11:54:37.817Z,98928.75
2019-01-14T11:57:08.896Z,98927.27
2019-01-14T11:59:39.893Z,98902.73
2019-01-14T12:02:10.945Z,98935.16
2019-01-14T12:04:43.096Z,98928.59
2019-01-14T12:07:14.085Z,98965.97
2019-01-14T12:09:44.995Z,98955.84
2019-01-14T12:12:15.921Z,98980.00
2019-01-14T12:14:46.955Z,98965.60
2019-01-14T12:17:18.038Z,98996.17
2019-01-14T12:19:49.048Z,99011.15
2019-01-14T12:22:20.064Z,99021.33
2019-01-14T12:24:51.070Z,99022.07
2019-01-14T12:27:22.036Z,99006.73
2019-01-14T12:29:53.019Z,99010.98
2019-01-14T12:32:24.017Z,99012.44
2019-01-14T12:34:55.002Z,99008.20
2019-01-14T12:37:26.095Z,99006.56
2019-01-14T12:39:57.138Z,99007.42
2019-01-14T12:42:28.193Z,99005.97
2019-01-14T12:44:59.142Z,99016.05
2019-01-14T12:47:30.191Z,99018.16
2019-01-14T12:50:01.181Z,99017.70
2019-01-14T12:52:33.305Z,99017.53
2019-01-14T12:55:04.673Z,99029.10
2019-01-14T12:57:35.599Z,99015.84
2019-01-14T13:00:12.601Z,99019.76
2019-01-14T13:02:43.641Z,99031.96
2019-01-14T13:05:15.296Z,99038.30
2019-01-14T13:07:46.289Z,99022.83
2019-01-14T13:10:17.267Z,99037.36
2019-01-14T13:12:48.225Z,99036.15
2019-01-14T13:15:21.345Z,99038.92
2019-01-14T13:17:53.287Z,99038.17
2019-01-14T13:20:24.253Z,99040.22
2019-01-14T13:22:55.354Z,99025.87
2019-01-14T13:25:26.403Z,99034.49
2019-01-14T13:27:57.428Z,99041.41
2019-01-14T13:30:29.999Z,99030.78
2019-01-14T13:33:01.076Z,99030.11
2019-01-14T13:35:32.140Z,99032.64
2019-01-14T13:38:03.169Z,99043.98
2019-01-14T13:40:34.360Z,99031.86
2019-01-14T13:43:05.460Z,99038.52
2019-01-14T13:45:36.414Z,99045.31
2019-01-14T13:48:07.680Z,99072.41
2019-01-14T13:50:38.858Z,99100.34
2019-01-14T13:53:09.876Z,99107.70
2019-01-14T13:55:40.943Z,99128.51
2019-01-14T13:58:12.097Z,99129.02
2019-01-14T14:00:43.061Z,99142.38
2019-01-14T14:03:14.111Z,99145.75
2019-01-14T14:05:45.168Z,99158.56
2019-01-14T14:08:16.723Z,99167.64
2019-01-14T14:10:47.718Z,99161.34
2019-01-14T14:13:18.893Z,99168.63
2019-01-14T14:15:49.867Z,99159.12
2019-01-14T14:18:20.834Z,99173.73
2019-01-14T14:20:51.762Z,99181.95
2019-01-14T14:23:22.853Z,99178.70
2019-01-14T14:25:57.512Z,99188.00
2019-01-14T14:28:29.676Z,99191.28
2019-01-14T14:31:00.748Z,99208.60
2019-01-14T14:33:31.865Z,99219.84
2019-01-14T14:36:02.831Z,99227.33
2019-01-14T14:38:33.848Z,99227.48
2019-01-14T14:41:04.860Z,99221.99
2019-01-14T14:43:36.126Z,99210.52
2019-01-14T14:46:07.202Z,99231.54
2019-01-14T14:48:39.530Z,99242.50
2019-01-14T14:51:10.625Z,99253.77
2019-01-14T14:53:41.665Z,99254.83
2019-01-14T14:56:12.686Z,99257.60
2019-01-14T14:58:43.757Z,99269.70
2019-01-14T15:01:14.836Z,99282.33
2019-01-14T15:03:45.797Z,99286.98
2019-01-14T15:06:17.017Z,99284.77
2019-01-14T15:08:48.001Z,99292.92
2019-01-14T15:11:18.998Z,99305.56
2019-01-14T15:13:50.095Z,99308.77
2019-01-14T15:16:21.315Z,99321.41
2019-01-14T15:18:52.660Z,99330.22
2019-01-14T15:21:23.705Z,99328.52
2019-01-14T15:23:54.637Z,99342.54
2019-01-14T15:26:25.927Z,99338.66
2019-01-14T15:28:56.997Z,99337.92
2019-01-14T15:31:27.995Z,99349.88
2019-01-14T15:33:59.077Z,99347.95
2019-01-14T15:36:30.156Z,99354.01
2019-01-14T15:39:01.207Z,99363.56
2019-01-14T15:41:33.755Z,99360.28
2019-01-14T15:44:05.104Z,99365.00
2019-01-14T15:46:36.146Z,99371.53
2019-01-14T15:49:07.306Z,99371.74
2019-01-14T15:51:38.238Z,99373.66
2019-01-14T15:54:09.321Z,99388.05
2019-01-14T15:56:40.483Z,99382.36
2019-01-14T15:59:11.461Z,99394.31
2019-01-14T16:01:42.563Z,99394.05
2019-01-14T16:04:13.614Z,99405.78
2019-01-14T16:06:45.624Z,99407.22
2019-01-14T16:09:16.712Z,99423.52
2019-01-14T16:11:50.656Z,99430.31
2019-01-14T16:14:21.633Z,99430.63
2019-01-14T16:16:52.623Z,99444.28
2019-01-14T16:19:23.649Z,99437.43
2019-01-14T16:21:54.650Z,99445.77
2019-01-14T16:24:25.834Z,99444.33
2019-01-14T16:26:56.921Z,99450.28
2019-01-14T16:29:27.970Z,99471.21
2019-01-14T16:31:58.882Z,99479.34
2019-01-14T16:34:29.867Z,99489.22
2019-01-14T16:37:01.042Z,99478.80
2019-01-14T16:39:32.168Z,99484.59
2019-01-14T16:42:04.066Z,99481.67
2019-01-14T16:44:35.231Z,99481.67
2019-01-14T16:47:06.226Z,99485.23
2019-01-14T16:49:37.379Z,99485.81
2019-01-14T16:52:08.275Z,99489.80
2019-01-14T16:54:39.325Z,99493.03
2019-01-14T16:57:10.391Z,99492.66
2019-01-14T16:59:41.460Z,99499.09
2019-01-14T17:02:12.497Z,99497.81
2019-01-14T17:04:43.549Z,99498.66
2019-01-14T17:07:14.520Z,99502.00
2019-01-14T17:09:45.542Z,99509.48
2019-01-14T17:12:16.605Z,99511.30
2019-01-14T17:14:47.657Z,99512.25
2019-01-14T17:17:18.685Z,99516.13
2019-01-14T17:19:50.840Z,99522.29
2019-01-14T17:22:22.974Z,99530.63
2019-01-14T17:24:54.083Z,99536.27
2019-01-14T17:27:25.014Z,99523.37
2019-01-14T17:29:58.375Z,99531.64
2019-01-14T17:32:30.204Z,99529.57
2019-01-14T17:35:01.235Z,99538.80
2019-01-14T17:37:33.040Z,99532.16
2019-01-14T17:40:04.504Z,99547.99
2019-01-14T17:42:35.839Z,99554.90
2019-01-14T17:45:08.993Z,99553.58
2019-01-14T17:47:41.442Z,99555.34
2019-01-14T17:50:17.024Z,99568.89
2019-01-14T17:52:50.619Z,99568.68
2019-01-14T17:55:21.774Z,99573.41
2019-01-14T17:57:52.797Z,99579.53
2019-01-14T18:00:27.785Z,99569.66
2019-01-14T18:03:01.987Z,99578.00
2019-01-14T18:05:33.066Z,99586.03
2019-01-14T18:08:04.178Z,99591.88
2019-01-14T18:10:40.102Z,99595.39
2019-01-14T18:13:11.316Z,99595.87
2019-01-14T18:15:42.411Z,99588.52
2019-01-14T18:18:13.440Z,99602.88
2019-01-14T18:20:44.521Z,99608.67
2019-01-14T18:23:15.493Z,99612.29
2019-01-14T18:25:46.561Z,99621.59
2019-01-14T18:28:17.561Z,99624.82
2019-01-14T18:30:48.591Z,99635.72
2019-01-14T18:33:19.949Z,99644.92
2019-01-14T18:35:51.015Z,99649.86
2019-01-14T18:38:21.948Z,99642.67
2019-01-14T18:40:52.899Z,99651.33
2019-01-14T18:43:23.804Z,99654.62
2019-01-14T18:45:54.874Z,99653.95
2019-01-14T18:48:25.855Z,99649.31
2019-01-14T18:50:56.920Z,99656.98
2019-01-14T18:53:27.859Z,99659.63
2019-01-14T18:56:01.761Z,99659.26
2019-01-14T18:58:33.947Z,99663.25
2019-01-14T19:01:04.986Z,99660.17
2019-01-14T19:03:35.985Z,99657.73
2019-01-14T19:06:07.042Z,99669.31
2019-01-14T19:08:38.096Z,99683.92
2019-01-14T19:11:09.065Z,99680.79
2019-01-14T19:13:40.033Z,99692.30
2019-01-14T19:16:11.013Z,99689.64
2019-01-14T19:18:42.049Z,99698.09
2019-01-14T19:21:13.030Z,99693.25
2019-01-14T19:23:44.056Z,99697.23
2019-01-14T19:26:15.067Z,99699.14
2019-01-14T19:28:48.403Z,99703.50
2019-01-14T19:31:19.417Z,99698.56
2019-01-14T19:33:50.369Z,99690.22
2019-01-14T19:36:21.354Z,99699.14
2019-01-14T19:38:52.308Z,99704.63
2019-01-14T19:41:25.606Z,99707.69
2019-01-14T19:43:56.565Z,99705.72
2019-01-14T19:46:27.591Z,99712.43
2019-01-14T19:48:58.522Z,99708.27
2019-01-14T19:51:32.070Z,99713.20
2019-01-14T19:54:02.988Z,99718.70
2019-01-14T19:56:33.937Z,99713.28
2019-01-14T19:59:04.860Z,99716.59
2019-01-14T20:01:35.801Z,99721.22
2019-01-14T20:04:07.014Z,99728.24
2019-01-14T20:06:38.040Z,99733.97
2019-01-14T20:09:09.011Z,99725.77
2019-01-14T20:11:40.244Z,99730.67
2019-01-14T20:14:11.217Z,99733.33
2019-01-14T20:16:42.190Z,99739.66
2019-01-14T20:19:13.257Z,99743.66
2019-01-14T20:21:44.251Z,99741.30
2019-01-14T20:24:15.311Z,99749.45
2019-01-14T20:26:46.370Z,99745.91
2019-01-14T20:29:17.387Z,99748.15
2019-01-14T20:31:49.424Z,99744.80
2019-01-14T20:34:20.409Z,99758.64
2019-01-14T20:36:51.450Z,99763.55
2019-01-14T20:39:22.510Z,99757.86
2019-01-14T20:41:53.552Z,99769.52
2019-01-14T20:44:24.610Z,99774.42
2019-01-14T20:46:55.704Z,99766.92
2019-01-14T20:49:26.695Z,99769.10
2019-01-14T20:51:57.771Z,99770.33
2019-01-14T20:54:28.707Z,99772.55
2019-01-14T20:56:59.693Z,99772.45
2019-01-14T20:59:34.563Z,99775.41
2019-01-14T21:02:03.355Z,99772.31
2019-01-14T21:04:34.383Z,99774.80
2019-01-14T21:07:05.535Z,99775.80
2019-01-14T21:09:36.572Z,99771.73
2019-01-14T21:12:07.551Z,99769.18
2019-01-14T21:14:38.725Z,99774.88
2019-01-14T21:17:09.841Z,99778.25
2019-01-14T21:19:40.887Z,99782.51
2019-01-14T21:22:11.870Z,99771.60
2019-01-14T21:24:42.933Z,99780.94
2019-01-14T21:27:14.035Z,99790.58
2019-01-14T21:29:45.117Z,99783.36
2019-01-14T21:32:16.115Z,99792.42
2019-01-14T21:34:47.090Z,99794.39
2019-01-14T21:37:18.106Z,99802.37
2019-01-14T21:39:49.046Z,99801.00
2019-01-14T21:42:20.015Z,99800.42
2019-01-14T21:44:50.991Z,99797.92
2019-01-14T21:47:22.026Z,99800.58
2019-01-14T21:49:53.055Z,99807.50
2019-01-14T21:52:33.725Z,99807.56
2019-01-14T21:55:05.179Z,99808.41
2019-01-14T21:57:36.230Z,99808.84
2019-01-14T22:00:10.314Z,99808.27
2019-01-14T22:02:41.458Z,99810.09
2019-01-14T22:05:12.434Z,99814.56
2019-01-14T22:07:43.432Z,99808.77
2019-01-14T22:10:19.308Z,99802.70
2019-01-14T22:13:00.594Z,99818.56
2019-01-14T22:15:31.789Z,99816.27
2019-01-14T22:18:02.862Z,99821.01
2019-01-14T22:20:33.798Z,99821.48
2019-01-14T22:23:04.751Z,99824.52
2019-01-14T22:25:35.687Z,99828.52
2019-01-14T22:28:06.771Z,99831.61
2019-01-14T22:30:37.801Z,99832.45
2019-01-14T22:33:08.901Z,99822.08
2019-01-14T22:35:39.938Z,99836.98
2019-01-14T22:38:10.978Z,99829.58
2019-01-14T22:40:41.919Z,99831.77
2019-01-14T22:43:12.873Z,99829.21
2019-01-14T22:45:43.785Z,99829.69
2019-01-14T22:48:14.757Z,99834.70
2019-01-14T22:50:45.767Z,99830.02
2019-01-14T22:53:16.821Z,99830.33
2019-01-14T22:55:47.759Z,99835.55
2019-01-14T22:58:18.695Z,99847.05
2019-01-14T23:01:16.205Z,99843.33
2019-01-14T23:03:52.143Z,99830.23
2019-01-14T23:06:23.179Z,99835.45
2019-01-14T23:08:54.202Z,99841.52
2019-01-14T23:11:25.256Z,99827.77
2019-01-14T23:13:56.178Z,99838.42
2019-01-14T23:16:27.220Z,99841.94
2019-01-14T23:18:58.278Z,99841.94
2019-01-14T23:21:29.218Z,99845.94
2019-01-14T23:24:01.378Z,99838.11
2019-01-14T23:26:32.348Z,99838.59
2019-01-14T23:29:03.435Z,99828.41
2019-01-14T23:31:34.344Z,99833.73
2019-01-14T23:34:05.623Z,99833.90
2019-01-14T23:36:36.666Z,99830.28
2019-01-14T23:39:09.864Z,99829.69
2019-01-14T23:41:40.862Z,99831.72
2019-01-14T23:44:11.818Z,99841.30
2019-01-14T23:46:42.732Z,99835.60
2019-01-14T23:49:14.794Z,99847.00
2019-01-14T23:51:45.722Z,99843.01
2019-01-14T23:57:05.537Z,99841.30
2019-01-14T23:59:36.492Z,99854.03
